Time;durP1;ratioP1;P1;durP2;ratioP2;P2;SDS_P1;SDS_P2;PMS_P1;PMS_P2;Temp;Humidity;BMP_temperature;BMP_pressure;BME280_temperature;BME280_humidity;BME280_pressure;Samples;Min_cycle;Max_cycle;Signal;HPM_P1;HPM_P2
2021/10/29 00:02:12;;;;;;;41.60;20.83;;;;;;;11.46;100.00;100848.00;5072194;28;20028;-75
2021/10/29 00:04:37;;;;;;;36.00;17.00;;;;;;;11.45;100.00;100856.47;5072977;28;20021;-74
2021/10/29 00:07:03;;;;;;;41.60;19.98;;;;;;;11.43;100.00;100854.03;5073126;28;20059;-75
2021/10/29 00:09:30;;;;;;;42.30;20.42;;;;;;;11.44;100.00;100863.84;5072889;28;20025;-75
2021/10/29 00:11:56;;;;;;;39.08;18.77;;;;;;;11.44;100.00;100866.56;5071665;28;20020;-75
2021/10/29 00:14:22;;;;;;;34.03;17.08;;;;;;;11.43;100.00;100856.75;5072924;28;20024;-75
2021/10/29 00:16:47;;;;;;;37.83;16.85;;;;;;;11.41;100.00;100849.94;5072936;28;20044;-75
2021/10/29 00:19:13;;;;;;;60.20;21.10;;;;;;;11.41;100.00;100856.22;5071928;28;20410;-75
2021/10/29 00:21:38;;;;;;;35.67;16.30;;;;;;;11.42;100.00;100854.31;5071428;28;20028;-74
2021/10/29 00:24:04;;;;;;;34.80;18.02;;;;;;;11.42;100.00;100863.31;5072693;28;20019;-75
2021/10/29 00:26:29;;;;;;;40.05;17.98;;;;;;;11.44;100.00;100846.66;5072710;28;20029;-74
2021/10/29 00:28:54;;;;;;;44.10;21.27;;;;;;;11.43;100.00;100847.72;5072396;28;20358;-74
2021/10/29 00:31:20;;;;;;;45.38;21.85;;;;;;;11.45;100.00;100846.38;5072647;28;20122;-75
2021/10/29 00:33:45;;;;;;;33.88;16.55;;;;;;;11.45;100.00;100843.63;5072425;28;20020;-74
2021/10/29 00:36:10;;;;;;;36.60;18.10;;;;;;;11.47;100.00;100844.19;5071316;28;20047;-75
2021/10/29 00:38:36;;;;;;;36.55;16.88;;;;;;;11.48;100.00;100850.44;5071145;28;20081;-75
2021/10/29 00:41:01;;;;;;;50.30;20.30;;;;;;;11.48;100.00;100851.25;5072404;28;20012;-75
2021/10/29 00:43:27;;;;;;;42.80;19.80;;;;;;;11.49;100.00;100852.91;5072459;28;20032;-74
2021/10/29 00:45:52;;;;;;;35.22;18.08;;;;;;;11.49;100.00;100846.66;5086273;28;20027;-75
2021/10/29 00:48:17;;;;;;;34.90;17.52;;;;;;;11.48;100.00;100839.53;5072227;28;20028;-75
2021/10/29 00:50:43;;;;;;;40.42;16.50;;;;;;;11.46;100.00;100837.09;5072360;28;20024;-74
2021/10/29 00:53:09;;;;;;;38.95;19.27;;;;;;;11.47;100.00;100837.91;5072043;28;20462;-74
2021/10/29 00:55:34;;;;;;;43.10;19.77;;;;;;;11.45;100.00;100840.09;5071409;28;20472;-74
2021/10/29 00:58:00;;;;;;;34.72;18.27;;;;;;;11.45;100.00;100823.72;5072119;28;20062;-74
2021/10/29 01:00:25;;;;;;;33.45;18.50;;;;;;;11.43;100.00;100832.19;5070967;28;20016;-74
2021/10/29 01:02:50;;;;;;;35.75;18.45;;;;;;;11.42;100.00;100841.47;5070781;28;20431;-74
2021/10/29 01:05:17;;;;;;;42.92;19.65;;;;;;;11.43;100.00;100836.81;5071215;28;20461;-75
2021/10/29 01:07:42;;;;;;;34.72;16.10;;;;;;;11.41;100.00;100845.28;5070813;28;20426;-75
2021/10/29 01:10:08;;;;;;;37.97;17.80;;;;;;;11.42;100.00;100846.13;5071891;28;20048;-75
2021/10/29 01:12:34;;;;;;;34.25;17.35;;;;;;;11.40;100.00;100842.84;5072069;28;20044;-75
2021/10/29 01:15:00;;;;;;;36.83;18.20;;;;;;;11.39;100.00;100824.84;5070522;28;20346;-74
2021/10/29 01:17:26;;;;;;;43.92;20.00;;;;;;;11.38;100.00;100824.03;5072021;28;20025;-75
2021/10/29 01:19:52;;;;;;;32.63;16.63;;;;;;;11.37;100.00;100827.81;5071878;28;20035;-74
2021/10/29 01:22:18;;;;;;;28.73;15.60;;;;;;;11.38;100.00;100826.75;5072207;28;20028;-75
2021/10/29 01:24:43;;;;;;;39.60;19.65;;;;;;;11.39;100.00;100817.44;5071014;28;20382;-75
2021/10/29 01:27:12;;;;;;;34.13;15.20;;;;;;;11.39;100.00;100820.19;5071834;28;20409;-75
2021/10/29 01:29:38;;;;;;;40.95;18.02;;;;;;;11.38;100.00;100809.56;5070552;28;20413;-75
2021/10/29 01:32:05;;;;;;;34.38;17.42;;;;;;;11.38;100.00;100825.94;5071852;28;20017;-74
2021/10/29 01:34:32;;;;;;;36.25;15.40;;;;;;;11.37;100.00;100819.63;5070637;28;20488;-74
2021/10/29 01:36:58;;;;;;;30.58;16.20;;;;;;;11.37;100.00;100821.56;5070609;28;20095;-75
2021/10/29 01:39:23;;;;;;;38.80;18.50;;;;;;;11.36;100.00;100818.00;5071795;28;20023;-75
2021/10/29 01:41:49;;;;;;;37.70;18.88;;;;;;;11.36;100.00;100812.56;5070563;28;20543;-74
2021/10/29 01:44:14;;;;;;;40.17;19.95;;;;;;;11.36;100.00;100828.94;5072926;28;20024;-74
2021/10/29 01:46:40;;;;;;;34.95;16.15;;;;;;;11.32;100.00;100814.19;5083267;28;20020;-75
2021/10/29 01:49:05;;;;;;;38.13;18.92;;;;;;;11.34;100.00;100817.47;5067315;28;20020;-74
2021/10/29 01:51:31;;;;;;;41.92;17.45;;;;;;;11.33;100.00;100834.94;5090862;28;20377;-75
2021/10/29 01:53:56;;;;;;;35.10;17.95;;;;;;;11.32;100.00;100814.19;5091731;28;20035;-75
2021/10/29 01:56:22;;;;;;;42.83;18.80;;;;;;;11.30;100.00;100810.94;5091646;28;20020;-75
2021/10/29 01:58:48;;;;;;;46.17;20.42;;;;;;;11.28;100.00;100799.47;5091872;28;20024;-74
2021/10/29 02:01:13;;;;;;;35.53;16.75;;;;;;;11.27;100.00;100792.41;5091699;28;20027;-75
2021/10/29 02:03:39;;;;;;;49.35;21.05;;;;;;;11.28;100.00;100796.75;5091897;28;20024;-75
2021/10/29 02:06:04;;;;;;;39.17;19.73;;;;;;;11.27;100.00;100795.13;5090623;28;20031;-75
2021/10/29 02:08:30;;;;;;;46.67;21.23;;;;;;;11.27;100.00;100800.59;5090245;28;20478;-75
2021/10/29 02:10:55;;;;;;;39.90;21.67;;;;;;;11.26;100.00;100802.47;5090560;28;20032;-75
2021/10/29 02:13:21;;;;;;;37.35;20.95;;;;;;;11.26;100.00;100788.81;5090655;28;20020;-75
2021/10/29 02:15:47;;;;;;;37.80;18.73;;;;;;;11.26;100.00;100793.47;5073541;28;20485;-75
2021/10/29 02:18:12;;;;;;;40.63;20.95;;;;;;;11.25;100.00;100780.94;5073387;28;20020;-75
2021/10/29 02:20:38;;;;;;;39.53;19.90;;;;;;;11.25;100.00;100786.41;5090451;28;20032;-76
2021/10/29 02:23:03;;;;;;;43.95;21.30;;;;;;;11.23;100.00;100783.13;5090423;28;20393;-75
2021/10/29 02:25:29;;;;;;;40.20;20.65;;;;;;;11.25;100.00;100789.13;5090217;28;20016;-75
2021/10/29 02:27:55;;;;;;;45.70;21.80;;;;;;;11.23;100.00;100789.38;5091979;28;20020;-75
2021/10/29 02:30:21;;;;;;;46.95;21.77;;;;;;;11.22;100.00;100778.78;5093805;28;20028;-75
2021/10/29 02:32:47;;;;;;;51.65;22.95;;;;;;;11.21;100.00;100777.13;5093979;28;20023;-74
2021/10/29 02:35:12;;;;;;;40.42;21.15;;;;;;;11.20;100.00;100778.22;5095223;28;20047;-75
2021/10/29 02:37:38;;;;;;;41.72;22.70;;;;;;;11.20;100.00;100764.56;5095145;28;20020;-75
2021/10/29 02:40:04;;;;;;;47.42;22.00;;;;;;;11.19;100.00;100765.69;5093751;28;20032;-76
2021/10/29 02:42:29;;;;;;;32.33;17.23;;;;;;;11.18;100.00;100774.94;5094832;28;20036;-75
2021/10/29 02:44:55;;;;;;;46.80;23.63;;;;;;;11.18;100.00;100764.03;5087866;28;20079;-75
2021/10/29 02:47:20;;;;;;;44.35;23.85;;;;;;;11.19;100.00;100765.69;5074691;28;20035;-75
2021/10/29 02:49:46;;;;;;;44.92;21.52;;;;;;;11.19;100.00;100761.03;5074436;28;20028;-75
2021/10/29 02:52:11;;;;;;;46.40;22.13;;;;;;;11.19;100.00;100765.69;5073322;28;20024;-75
2021/10/29 02:54:37;;;;;;;35.15;17.90;;;;;;;11.18;100.00;100750.38;5074461;28;20020;-75
2021/10/29 02:57:03;;;;;;;42.28;18.92;;;;;;;11.17;100.00;100737.84;5073357;28;20450;-75
2021/10/29 02:59:28;;;;;;;41.58;21.95;;;;;;;11.16;100.00;100756.13;5073061;28;20024;-75
2021/10/29 03:01:53;;;;;;;41.05;20.27;;;;;;;11.18;100.00;100747.66;5073251;28;20028;-75
2021/10/29 03:04:19;;;;;;;44.63;21.58;;;;;;;11.16;100.00;100738.94;5073148;28;20028;-75
2021/10/29 03:06:44;;;;;;;34.65;17.42;;;;;;;11.15;100.00;100749.03;5074002;28;20024;-75
2021/10/29 03:09:10;;;;;;;46.97;22.20;;;;;;;11.15;100.00;100745.50;5074210;28;20094;-75
2021/10/29 03:11:35;;;;;;;45.28;22.65;;;;;;;11.12;100.00;100749.59;5074062;28;20028;-75
2021/10/29 03:14:00;;;;;;;45.47;22.00;;;;;;;11.11;100.00;100729.69;5073013;28;20021;-75
2021/10/29 03:16:26;;;;;;;48.08;23.55;;;;;;;11.13;100.00;100751.25;5072799;28;20397;-75
2021/10/29 03:18:51;;;;;;;45.92;24.48;;;;;;;11.10;100.00;100752.63;5072958;28;20020;-75
2021/10/29 03:21:17;;;;;;;42.90;22.70;;;;;;;11.10;100.00;100747.16;5074305;28;20024;-75
2021/10/29 03:23:43;;;;;;;41.03;23.48;;;;;;;11.08;100.00;100754.81;5072683;28;20024;-76
2021/10/29 03:26:08;;;;;;;50.85;25.52;;;;;;;11.06;100.00;100737.88;5073959;28;20043;-75
2021/10/29 03:28:35;;;;;;;43.38;23.42;;;;;;;11.06;100.00;100742.53;5072263;28;20028;-75
2021/10/29 03:31:00;;;;;;;51.00;24.35;;;;;;;11.05;100.00;100744.44;5076089;28;20015;-76
2021/10/29 03:33:26;;;;;;;49.88;24.05;;;;;;;11.05;100.00;100744.44;5093830;28;20435;-75
2021/10/29 03:35:53;;;;;;;45.55;25.83;;;;;;;11.03;100.00;100748.53;5092982;28;20055;-75
2021/10/29 03:41:05;;;;;;;52.95;27.42;;;;;;;11.00;100.00;100741.72;5092840;28;20027;-75
2021/10/29 03:43:46;;;;;;;44.95;21.55;;;;;;;10.97;100.00;100736.84;5092534;28;20031;-76
2021/10/29 03:46:19;;;;;;;54.15;23.10;;;;;;;10.95;100.00;100733.56;5075225;28;20017;-76
2021/10/29 03:53:49;;;;;;;52.30;23.48;;;;;;;10.93;100.00;100716.66;5072431;28;20035;-75
2021/10/29 03:56:24;;;;;;;51.47;27.77;;;;;;;10.93;100.00;100719.38;5073210;28;20044;-75
2021/10/29 03:58:50;;;;;;;63.25;28.70;;;;;;;10.93;100.00;100727.56;5066294;28;20024;-75
2021/10/29 04:01:16;;;;;;;63.42;28.85;;;;;;;10.95;100.00;100728.09;5075579;28;20039;-75
2021/10/29 04:03:42;;;;;;;49.58;24.30;;;;;;;10.96;100.00;100728.91;5093418;28;20095;-76
2021/10/29 04:06:08;;;;;;;57.92;26.83;;;;;;;10.96;100.00;100721.53;5092141;28;20028;-75
2021/10/29 04:08:33;;;;;;;53.67;24.25;;;;;;;10.94;100.00;100717.47;5074824;28;20128;-75
2021/10/29 04:10:59;;;;;;;60.15;27.10;;;;;;;10.91;100.00;100716.09;5092136;28;20020;-76
2021/10/29 04:13:33;;;;;;;58.13;26.85;;;;;;;10.90;100.00;100714.47;5093186;28;20466;-75
2021/10/29 04:16:02;;;;;;;57.30;27.30;;;;;;;10.87;100.00;100710.41;5093133;28;20104;-75
2021/10/29 04:18:28;;;;;;;50.33;21.85;;;;;;;10.86;100.00;100710.69;5092095;28;20020;-75
2021/10/29 04:20:54;;;;;;;52.50;22.65;;;;;;;10.84;100.00;100693.78;5091867;28;20362;-75
2021/10/29 04:23:19;;;;;;;49.28;20.48;;;;;;;10.85;100.00;100706.31;5092882;28;20046;-75
2021/10/29 04:25:45;;;;;;;58.47;25.92;;;;;;;10.82;100.00;100701.41;5093024;28;20020;-75
2021/10/29 04:28:12;;;;;;;56.95;28.23;;;;;;;10.79;100.00;100707.41;5092933;28;20047;-75
2021/10/29 04:30:38;;;;;;;60.83;29.10;;;;;;;10.77;100.00;100701.41;5092775;28;20434;-75
2021/10/29 04:33:06;;;;;;;58.45;25.10;;;;;;;10.76;100.00;100694.34;5091708;28;20530;-75
2021/10/29 04:35:36;;;;;;;58.97;25.77;;;;;;;10.77;100.00;100693.25;5091547;28;20176;-75
2021/10/29 04:38:05;;;;;;;54.33;25.48;;;;;;;10.77;100.00;100698.69;5091569;28;20085;-75
2021/10/29 04:40:31;;;;;;;62.13;29.08;;;;;;;10.75;100.00;100687.25;5092553;28;20024;-75
2021/10/29 04:42:56;;;;;;;54.47;23.73;;;;;;;10.74;100.00;100685.63;5074757;28;20100;-75
2021/10/29 04:45:22;;;;;;;41.97;22.23;;;;;;;10.73;100.00;100682.09;5082054;28;20024;-75
2021/10/29 04:47:48;;;;;;;58.88;27.90;;;;;;;10.73;100.00;100692.19;5085244;28;20029;-75
2021/10/29 04:50:13;;;;;;;60.55;27.42;;;;;;;10.71;100.00;100684.25;5071887;28;20021;-75
2021/10/29 04:52:38;;;;;;;58.75;26.45;;;;;;;10.71;100.00;100686.19;5072234;28;20050;-75
2021/10/29 04:55:04;;;;;;;57.63;27.48;;;;;;;10.74;100.00;100694.59;5072307;28;20074;-74
2021/10/29 04:57:30;;;;;;;63.17;28.88;;;;;;;10.76;100.00;100688.91;5071366;28;20457;-76
2021/10/29 04:59:57;;;;;;;59.55;27.23;;;;;;;10.76;100.00;100691.63;5072165;28;20424;-75
2021/10/29 05:02:23;;;;;;;55.60;22.77;;;;;;;10.78;100.00;100684.00;5071075;28;20024;-75
2021/10/29 05:04:48;;;;;;;65.43;28.60;;;;;;;10.78;100.00;100673.88;5072258;28;20031;-75
2021/10/29 05:07:14;;;;;;;61.90;26.23;;;;;;;10.80;100.00;100673.59;5070816;28;20414;-75
2021/10/29 05:09:39;;;;;;;67.40;30.30;;;;;;;10.77;100.00;100669.50;5068864;28;20376;-75
2021/10/29 05:12:06;;;;;;;64.38;28.98;;;;;;;10.76;100.00;100664.34;5092605;28;20456;-75
2021/10/29 05:14:31;;;;;;;59.65;27.58;;;;;;;10.76;100.00;100664.34;5074178;28;20103;-75
2021/10/29 05:16:57;;;;;;;48.72;22.50;;;;;;;10.78;100.00;100667.63;5073822;28;20362;-75
2021/10/29 05:19:22;;;;;;;48.83;25.33;;;;;;;10.79;100.00;100661.88;5091069;28;20020;-74
2021/10/29 05:21:47;;;;;;;56.22;26.83;;;;;;;10.78;100.00;100656.72;5092127;28;20024;-74
2021/10/29 05:24:14;;;;;;;55.50;23.10;;;;;;;10.77;100.00;100660.53;5092174;28;20417;-75
2021/10/29 05:26:40;;;;;;;50.47;23.48;;;;;;;10.74;100.00;100659.16;5090803;28;20023;-75
2021/10/29 05:29:06;;;;;;;53.72;24.20;;;;;;;10.73;100.00;100665.72;5090875;28;20024;-75
2021/10/29 05:31:31;;;;;;;59.45;26.75;;;;;;;10.71;100.00;100664.38;5090939;28;20028;-76
2021/10/29 05:33:57;;;;;;;47.20;22.08;;;;;;;10.70;100.00;100649.13;5090984;28;20436;-74
2021/10/29 05:36:22;;;;;;;58.25;26.25;;;;;;;10.68;100.00;100656.75;5092030;28;20028;-75
2021/10/29 05:38:47;;;;;;;60.55;30.20;;;;;;;10.66;100.00;100663.28;5091850;28;20028;-74
2021/10/29 05:41:13;;;;;;;60.90;28.45;;;;;;;10.65;100.00;100669.81;5091914;28;20031;-74
2021/10/29 05:43:38;;;;;;;58.42;28.17;;;;;;;10.64;100.00;100665.47;5091791;28;20035;-74
2021/10/29 05:46:04;;;;;;;61.10;29.20;;;;;;;10.61;100.00;100668.75;5075239;28;20017;-75
2021/10/29 05:48:29;;;;;;;62.70;28.80;;;;;;;10.62;100.00;100664.13;5070576;28;20039;-74
2021/10/29 05:50:58;;;;;;;69.95;30.63;;;;;;;10.61;100.00;100671.50;5071524;28;20078;-74
2021/10/29 05:53:36;;;;;;;65.18;27.85;;;;;;;10.60;100.00;100664.38;5070406;28;20045;-74
2021/10/29 05:56:03;;;;;;;57.65;28.80;;;;;;;10.59;100.00;100667.41;5070431;28;20024;-74
2021/10/29 05:58:28;;;;;;;59.92;26.38;;;;;;;10.61;100.00;100666.03;5070460;28;20023;-76
2021/10/29 06:00:54;;;;;;;59.17;26.35;;;;;;;10.63;100.00;100673.94;5072023;28;20020;-75
2021/10/29 06:03:19;;;;;;;60.03;28.48;;;;;;;10.61;100.00;100668.75;5074230;28;20021;-76
2021/10/29 06:05:45;;;;;;;69.45;27.55;;;;;;;10.62;100.00;100667.66;5075464;28;20482;-75
2021/10/29 06:08:10;;;;;;;51.00;23.00;;;;;;;10.62;100.00;100661.41;5075150;28;20048;-75
2021/10/29 06:10:35;;;;;;;43.90;19.35;;;;;;;10.64;100.00;100686.47;5075376;28;20086;-76
2021/10/29 06:13:01;;;;;;;53.55;22.00;;;;;;;10.66;100.00;100666.00;5075234;28;20367;-75
2021/10/29 06:15:26;;;;;;;64.63;30.65;;;;;;;10.65;100.00;100675.28;5074135;28;20382;-76
2021/10/29 06:17:52;;;;;;;59.00;29.85;;;;;;;10.64;100.00;100665.47;5075394;28;20028;-75
2021/10/29 06:20:18;;;;;;;62.80;27.40;;;;;;;10.66;100.00;100676.91;5075033;28;20024;-75
2021/10/29 06:22:48;;;;;;;57.17;26.15;;;;;;;10.69;100.00;100670.09;5075189;28;20030;-74
2021/10/29 06:25:16;;;;;;;70.38;31.38;;;;;;;10.74;100.00;100686.44;5074983;28;20039;-75
2021/10/29 06:30:26;;;;;;;64.80;27.13;;;;;;;10.81;100.00;100667.06;5073957;28;20027;-75
2021/10/29 06:32:51;;;;;;;65.20;27.80;;;;;;;10.84;100.00;100678.22;5075009;28;20024;-75
2021/10/29 06:35:17;;;;;;;53.40;24.10;;;;;;;10.89;100.00;100674.66;5073670;28;20228;-75
2021/10/29 06:37:42;;;;;;;55.80;26.10;;;;;;;10.89;100.00;100671.94;5073680;28;20028;-75
2021/10/29 06:40:12;;;;;;;43.85;21.95;;;;;;;10.89;100.00;100670.03;5073526;28;20021;-75
2021/10/29 06:42:38;;;;;;;52.72;25.55;;;;;;;10.88;100.00;100654.78;5073482;28;20055;-75
2021/10/29 06:47:46;;;;;;;60.17;30.45;;;;;;;10.91;100.00;100658.00;5079177;28;20381;-74
2021/10/29 07:40:04;;;;;;;53.42;29.02;;;;;;;11.18;100.00;100710.28;5068955;28;20077;-75
2021/10/29 07:42:39;;;;;;;45.17;25.30;;;;;;;11.20;100.00;100718.19;5093045;28;20099;-76
2021/10/29 07:45:06;;;;;;;54.40;30.30;;;;;;;11.22;100.00;100713.28;5077002;28;20024;-74
2021/10/29 07:47:33;;;;;;;51.72;26.80;;;;;;;11.20;100.00;100702.63;5079271;28;20027;-74
2021/10/29 07:49:58;;;;;;;57.13;26.33;;;;;;;11.22;100.00;100702.38;5072332;28;20521;-74
2021/10/29 07:52:24;;;;;;;46.85;23.77;;;;;;;11.24;99.78;100698.25;5073500;28;20032;-75
2021/10/29 07:54:49;;;;;;;49.20;27.10;;;;;;;11.25;99.71;100709.97;5073303;28;20032;-75
2021/10/29 07:57:18;;;;;;;48.00;24.40;;;;;;;11.26;99.31;100711.59;5073373;28;20021;-75
2021/10/29 07:59:44;;;;;;;54.30;28.40;;;;;;;11.25;99.17;100709.97;5073180;28;20056;-76
2021/10/29 08:02:09;;;;;;;42.78;22.00;;;;;;;11.25;99.09;100721.72;5073271;28;20508;-75
2021/10/29 08:04:36;;;;;;;47.38;22.58;;;;;;;11.26;98.94;100717.88;5071882;28;20021;-75
2021/10/29 08:07:01;;;;;;;49.20;24.65;;;;;;;11.26;98.79;100719.78;5072971;28;20041;-76
2021/10/29 08:09:27;;;;;;;52.55;27.75;;;;;;;11.27;98.59;100726.91;5073070;28;20043;-75
2021/10/29 08:11:53;;;;;;;52.78;28.65;;;;;;;11.28;98.56;100714.88;5072935;28;20386;-75
2021/10/29 08:14:20;;;;;;;54.72;27.90;;;;;;;11.29;98.40;100730.97;5071916;28;20032;-75
2021/10/29 08:16:45;;;;;;;50.75;29.55;;;;;;;11.32;98.51;100721.38;5071643;28;20099;-75
2021/10/29 08:19:11;;;;;;;50.10;24.85;;;;;;;11.34;98.24;100736.41;5071775;28;20019;-75
2021/10/29 08:21:36;;;;;;;52.13;29.00;;;;;;;11.36;98.11;100738.03;5072744;28;20025;-75
2021/10/29 08:24:02;;;;;;;46.58;24.67;;;;;;;11.37;98.02;100735.03;5073016;28;20032;-74
2021/10/29 08:26:27;;;;;;;54.03;26.63;;;;;;;11.40;97.80;100728.19;5071021;28;20078;-75
2021/10/29 08:28:53;;;;;;;47.03;28.17;;;;;;;11.40;97.76;100733.66;5071255;28;20043;-75
2021/10/29 08:31:18;;;;;;;53.00;27.35;;;;;;;11.41;97.11;100724.38;5072694;28;20032;-75
2021/10/29 08:33:43;;;;;;;51.58;25.27;;;;;;;11.43;97.60;100724.88;5072533;28;20020;-75
2021/10/29 08:36:10;;;;;;;46.50;26.80;;;;;;;11.45;97.42;100731.69;5071328;28;20397;-76
2021/10/29 08:38:35;;;;;;;59.58;28.23;;;;;;;11.44;97.20;100724.63;5072310;28;20042;-75
2021/10/29 08:41:01;;;;;;;34.67;19.15;;;;;;;11.46;97.02;100729.81;5072707;28;20412;-76
2021/10/29 08:43:26;;;;;;;51.50;27.30;;;;;;;11.46;96.92;100729.81;5071338;28;20493;-75
2021/10/29 08:45:53;;;;;;;50.10;22.42;;;;;;;11.48;96.87;100731.13;5086291;28;20023;-75
2021/10/29 08:48:18;;;;;;;49.47;27.00;;;;;;;11.45;96.59;100725.44;5072346;28;20027;-75
2021/10/29 08:50:44;;;;;;;53.10;28.00;;;;;;;11.46;96.58;100722.44;5054461;28;20020;-74
2021/10/29 08:53:09;;;;;;;49.63;29.08;;;;;;;11.50;96.57;100731.69;5070903;28;20016;-74
2021/10/29 08:55:37;;;;;;;43.00;22.58;;;;;;;11.49;96.24;100732.78;5071039;28;20036;-75
2021/10/29 08:58:06;;;;;;;43.78;21.80;;;;;;;11.48;96.07;100733.88;5070756;28;20044;-75
2021/10/29 09:00:34;;;;;;;56.72;29.63;;;;;;;11.47;96.20;100728.72;5070906;28;20024;-75
2021/10/29 09:03:47;;;;;;;39.60;21.15;;;;;;;11.47;95.95;100724.06;5070416;28;20186;-76
2021/10/29 09:06:17;;;;;;;50.45;25.27;;;;;;;11.47;95.94;100724.06;5081457;28;20043;-76
2021/10/29 09:09:13;;;;;;;55.78;29.48;;;;;;;11.48;95.90;100725.69;5091024;28;20119;-75
2021/10/29 09:31:28;;;;;;;45.77;24.07;;;;;;;11.62;95.05;100708.69;5077301;28;20173;-75
2021/10/29 09:34:06;;;;;;;43.35;24.38;;;;;;;11.65;95.09;100705.38;5090931;28;20020;-74
2021/10/29 09:36:47;;;;;;;52.45;26.05;;;;;;;11.68;94.72;100708.38;5093102;28;20512;-75
2021/10/29 09:39:21;;;;;;;49.92;26.55;;;;;;;11.70;94.77;100713.53;5096567;28;20031;-75
2021/10/29 09:42:04;;;;;;;44.25;27.85;;;;;;;11.65;94.57;100708.94;5094995;28;20473;-75
2021/10/29 09:44:44;;;;;;;48.50;26.48;;;;;;;11.65;94.71;100706.22;5063421;28;20024;-74
2021/10/29 09:47:09;;;;;;;42.47;24.17;;;;;;;11.67;94.21;100717.66;5083157;28;20035;-75
2021/10/29 09:49:39;;;;;;;41.28;23.80;;;;;;;11.68;94.05;100707.56;5074401;28;20016;-75
2021/10/29 09:53:01;;;;;;;50.38;27.23;;;;;;;11.69;94.15;100701.00;5074338;28;20440;-75
2021/10/29 09:55:00;;;;;;;38.10;20.27;;;;;;;11.63;93.72;100710.31;5063318;28;20486;-74
2021/10/29 09:57:26;;;;;;;48.20;24.95;;;;;;;11.65;93.94;100710.84;5074314;28;20067;-76
2021/10/29 09:59:55;;;;;;;37.75;24.98;;;;;;;11.68;93.72;100702.09;5074013;28;20016;-75
2021/10/29 10:02:21;;;;;;;43.63;24.30;;;;;;;11.66;93.60;100726.16;5074296;28;20462;-75
2021/10/29 10:04:51;;;;;;;47.42;21.33;;;;;;;11.62;93.50;100714.97;5075405;28;20029;-75
2021/10/29 10:07:38;;;;;;;44.97;27.35;;;;;;;11.63;93.49;100708.41;5074164;28;20513;-75
2021/10/29 10:10:06;;;;;;;46.03;24.98;;;;;;;11.68;93.29;100723.97;5073975;28;20058;-75
2021/10/29 10:12:34;;;;;;;44.17;26.08;;;;;;;11.66;93.01;100718.75;5075380;28;20045;-74
2021/10/29 10:15:00;;;;;;;46.65;25.52;;;;;;;11.65;93.33;100725.34;5073884;28;20021;-75
2021/10/29 10:17:25;;;;;;;44.20;23.67;;;;;;;11.66;93.24;100720.69;5073917;28;20033;-75
2021/10/29 10:19:51;;;;;;;52.65;28.65;;;;;;;11.68;93.15;100713.03;5073860;28;20540;-75
2021/10/29 10:22:19;;;;;;;51.08;26.98;;;;;;;11.72;93.23;100712.16;5075183;28;20423;-75
2021/10/29 10:24:52;;;;;;;48.65;28.50;;;;;;;11.75;92.97;100708.06;5074986;28;20492;-75
2021/10/29 10:27:32;;;;;;;48.53;27.85;;;;;;;11.81;92.86;100679.59;5057955;28;20115;-75
2021/10/29 10:30:05;;;;;;;42.63;25.38;;;;;;;11.82;92.41;100697.63;5074845;28;20103;-74
2021/10/29 10:54:13;;;;;;;42.47;22.35;;;;;;;11.92;91.10;100670.28;5095075;28;20024;-75
2021/10/29 10:57:14;;;;;;;46.95;27.92;;;;;;;11.85;91.22;100691.59;5094572;28;20380;-75
2021/10/29 11:00:06;;;;;;;48.90;24.25;;;;;;;11.76;91.24;100698.78;5079066;28;20024;-74
2021/10/29 11:03:10;;;;;;;48.08;26.85;;;;;;;11.70;91.51;100676.16;5094676;28;20020;-74
2021/10/29 11:11:04;;;;;;;47.03;28.02;;;;;;;12.08;91.38;100681.06;5073334;28;20527;-74
2021/10/29 11:13:42;;;;;;;44.40;25.88;;;;;;;12.15;91.37;100665.97;5074997;28;20447;-75
2021/10/29 11:16:08;;;;;;;51.08;28.45;;;;;;;12.16;91.23;100667.59;5094378;28;20031;-74
2021/10/29 11:18:35;;;;;;;53.08;26.77;;;;;;;12.23;90.90;100669.19;5094124;28;20020;-75
2021/10/29 11:21:18;;;;;;;46.88;24.73;;;;;;;12.21;90.57;100669.47;5094236;28;20020;-75
2021/10/29 11:23:58;;;;;;;47.65;27.67;;;;;;;12.15;90.26;100663.22;5076924;28;20509;-74
2021/10/29 11:26:32;;;;;;;42.03;24.83;;;;;;;12.25;90.45;100654.13;5094224;28;20027;-75
2021/10/29 11:28:59;;;;;;;43.25;24.58;;;;;;;12.34;90.15;100655.13;5092698;28;20385;-75
2021/10/29 11:31:29;;;;;;;35.83;22.13;;;;;;;12.31;89.86;100650.25;5094072;28;20048;-75
2021/10/29 11:33:56;;;;;;;38.03;21.15;;;;;;;12.35;89.53;100656.75;5075990;28;20020;-75
2021/10/29 11:36:26;;;;;;;46.00;25.67;;;;;;;12.27;89.27;100651.09;5094092;28;20051;-75
2021/10/29 11:38:54;;;;;;;44.60;25.65;;;;;;;12.24;89.14;100638.81;5092646;28;20016;-75
2021/10/29 11:41:31;;;;;;;39.67;22.58;;;;;;;12.20;88.95;100648.72;5093900;28;20020;-74
2021/10/29 11:44:04;;;;;;;39.42;22.08;;;;;;;12.09;88.93;100641.72;5075946;28;20020;-74
2021/10/29 11:46:32;;;;;;;41.33;22.65;;;;;;;12.10;88.89;100637.88;5073613;28;20411;-75
2021/10/29 11:48:59;;;;;;;41.42;25.55;;;;;;;12.14;88.97;100633.44;5068225;28;20024;-74
2021/10/29 11:51:24;;;;;;;35.55;19.60;;;;;;;12.07;88.29;100661.13;5093829;28;20055;-75
2021/10/29 11:53:55;;;;;;;43.33;24.17;;;;;;;11.83;88.26;100658.28;5092478;28;20051;-75
2021/10/29 12:07:14;;;;;;;46.13;24.15;;;;;;;11.73;89.86;100639.22;5093518;28;20096;-75
2021/10/29 12:09:39;;;;;;;39.25;19.83;;;;;;;11.67;89.87;100648.56;5093253;28;20364;-75
2021/10/29 12:12:11;;;;;;;40.00;24.13;;;;;;;11.60;90.08;100645.38;5093346;28;20020;-75
2021/10/29 12:14:37;;;;;;;38.53;21.13;;;;;;;11.65;90.25;100658.97;5092237;28;20025;-74
2021/10/29 12:17:35;;;;;;;37.45;20.85;;;;;;;11.70;90.31;100642.53;5093315;28;20027;-74
2021/10/29 12:20:09;;;;;;;44.13;24.85;;;;;;;11.66;90.03;100644.22;5091889;28;20016;-74
2021/10/29 12:27:42;;;;;;;37.33;22.50;;;;;;;11.61;90.29;100622.41;5092264;28;20043;-74
2021/10/29 12:30:15;;;;;;;48.30;25.35;;;;;;;11.59;90.49;100638.25;5092913;28;20107;-75
2021/10/29 13:03:24;;;;;;;38.47;21.58;;;;;;;12.62;87.58;100614.34;5091363;28;20030;-75
2021/10/29 13:05:56;;;;;;;40.35;21.45;;;;;;;12.66;88.16;100618.97;5092461;28;20103;-75
2021/10/29 13:08:22;;;;;;;39.00;21.55;;;;;;;12.96;88.06;100614.22;5090911;28;20123;-76
2021/10/29 13:10:54;;;;;;;43.40;24.65;;;;;;;13.15;87.61;100629.81;5090579;28;20029;-75
2021/10/29 13:13:43;;;;;;;38.20;21.13;;;;;;;13.23;86.88;100616.31;5092138;28;20031;-75
2021/10/29 13:16:09;;;;;;;43.05;20.20;;;;;;;13.09;86.09;100620.88;5091642;28;20107;-75
2021/10/29 13:18:46;;;;;;;42.63;22.10;;;;;;;12.85;86.45;100618.19;5090948;28;20023;-75
2021/10/29 13:51:34;;;;;;;41.45;24.88;;;;;;;14.27;82.62;100556.78;5071699;28;20500;-75
2021/10/29 13:54:11;;;;;;;38.08;22.35;;;;;;;14.38;81.96;100554.66;5071731;28;20107;-75
2021/10/29 13:59:26;;;;;;;35.25;20.98;;;;;;;13.98;82.27;100570.75;5071695;28;20671;-76
2021/10/29 14:31:51;;;;;;;32.85;21.58;;;;;;;14.07;79.57;100574.41;5058409;28;20120;-76
2021/10/29 14:34:21;;;;;;;30.30;18.95;;;;;;;13.94;79.59;100569.72;5074954;28;20512;-74
2021/10/29 14:50:16;;;;;;;29.65;15.93;;;;;;;13.08;81.20;100572.72;5074987;28;20021;-74
2021/10/29 15:01:03;;;;;;;33.53;22.25;;;;;;;12.41;83.57;100559.94;5093691;28;20027;-74
2021/10/29 15:31:55;;;;;;;27.67;18.42;;;;;;;11.80;86.97;100552.34;5085184;28;20040;-73
2021/10/29 15:51:21;;;;;;;25.05;17.15;;;;;;;11.70;88.48;100536.03;5072549;28;20390;-74
2021/10/29 15:53:46;;;;;;;29.58;17.10;;;;;;;11.71;88.60;100534.94;5073777;28;20028;-73
2021/10/29 15:58:55;;;;;;;28.35;15.57;;;;;;;11.71;88.40;100529.50;5072326;28;20032;-75